Time,TemperatureF,DewpointF,PressureIn,WindDirection,WindDirectionDegrees,WindSpeedMPH,WindSpeedGustMPH,Humidity,HourlyPrecipIn,Conditions,Clouds,dailyrainin,SolarRadiationWatts/m^2,SoftwareType,DateUTC
2013-10-01 00:01:00,59.0,54.8,29.99,SE,145,0.0,0.0,86,0.00,,CLR,0.00,0.00,VWS V14.01,2013-10-01 04:01:00,
2013-10-01 00:02:00,59.0,54.8,29.99,SE,145,0.0,0.0,86,0.00,,CLR,0.00,0.00,VWS V14.01,2013-10-01 04:02:00,
2013-10-01 00:03:00,59.0,54.8,29.99,SE,145,0.0,0.0,86,0.00,,CLR,0.00,0.00,VWS V14.01,2013-10-01 04:03:00,
2013-10-01 00:08:00,58.8,54.6,29.99,SE,145,0.0,0.0,86,0.00,,CLR,0.00,0.00,VWS V14.01,2013-10-01 04:08:00,
2013-10-01 00:13:00,58.6,54.8,29.99,SE,145,0.0,0.0,87,0.00,,CLR,0.00,0.00,VWS V14.01,2013-10-01 04:13:00,
2013-10-01 00:18:00,58.4,54.5,30.00,SE,145,0.0,0.0,87,0.00,,CLR,0.00,0.00,VWS V14.01,2013-10-01 04:18:00,
2013-10-01 00:23:00,58.2,54.7,30.00,SE,145,0.0,0.0,88,0.00,,CLR,0.00,0.00,VWS V14.01,2013-10-01 04:23:00,
2013-10-01 00:29:00,58.0,54.8,29.99,SE,145,0.0,0.0,89,0.00,,CLR,0.00,0.00,VWS V14.01,2013-10-01 04:29:00,
2013-10-01 00:34:00,57.9,54.7,29.99,SE,145,0.0,0.0,89,0.00,,CLR,0.00,0.00,VWS V14.01,2013-10-01 04:34:00,
2013-10-01 00:39:00,57.7,54.5,29.99,SE,145,0.0,0.0,89,0.00,,CLR,0.00,0.00,VWS V14.01,2013-10-01 04:39:00,
2013-10-01 00:44:00,57.5,54.3,29.99,SE,145,0.0,0.0,89,0.00,,CLR,0.00,0.00,VWS V14.01,2013-10-01 04:44:00,
2013-10-01 00:49:00,57.4,54.2,29.99,SE,145,0.0,0.0,89,0.00,,CLR,0.00,0.00,VWS V14.01,2013-10-01 04:49:00,
2013-10-01 00:54:00,57.2,54.0,29.99,SE,145,0.0,0.0,89,0.00,,CLR,0.00,0.00,VWS V14.01,2013-10-01 04:54:00,
2013-10-01 00:59:00,56.9,53.7,29.99,SE,145,0.0,0.0,89,0.00,,CLR,0.00,0.00,VWS V14.01,2013-10-01 04:59:00,
2013-10-01 01:04:00,56.7,53.5,29.99,SE,145,0.0,0.0,89,0.00,,CLR,0.00,0.00,VWS V14.01,2013-10-01 05:04:00,
2013-10-01 01:10:00,56.5,53.3,29.99,SE,145,0.0,0.0,89,0.00,,CLR,0.00,0.00,VWS V14.01,2013-10-01 05:10:00,
2013-10-01 01:15:00,56.4,53.5,29.99,SE,145,0.0,0.0,90,0.00,,CLR,0.00,0.00,VWS V14.01,2013-10-01 05:15:00,
2013-10-01 01:20:00,56.2,53.0,29.99,SE,145,0.0,0.0,89,0.00,,CLR,0.00,0.00,VWS V14.01,2013-10-01 05:20:00,
2013-10-01 01:25:00,56.0,52.8,29.99,SE,145,0.0,0.0,89,0.00,,CLR,0.00,0.00,VWS V14.01,2013-10-01 05:25:00,
2013-10-01 01:30:00,55.8,52.9,29.99,SE,145,0.0,0.0,90,0.00,,CLR,0.00,0.00,VWS V14.01,2013-10-01 05:30:00,
2013-10-01 01:35:00,55.7,52.8,29.99,SE,145,0.0,0.0,90,0.00,,CLR,0.00,0.00,VWS V14.01,2013-10-01 05:35:00,
2013-10-01 01:40:00,55.5,52.6,29.99,SE,145,0.0,0.0,90,0.00,,CLR,0.00,0.00,VWS V14.01,2013-10-01 05:40:00,
2013-10-01 01:45:00,55.4,52.5,29.99,SE,145,0.0,0.0,90,0.00,,CLR,0.00,0.00,VWS V14.01,2013-10-01 05:45:00,
2013-10-01 01:51:00,55.2,52.3,29.99,SE,145,0.0,0.0,90,0.00,,CLR,0.00,0.00,VWS V14.01,2013-10-01 05:51:00,
2013-10-01 01:56:00,55.1,52.5,29.99,SE,145,0.0,0.0,91,0.00,,CLR,0.00,0.00,VWS V14.01,2013-10-01 05:56:00,
2013-10-01 02:01:00,55.0,52.1,29.99,SE,145,0.0,0.0,90,0.00,,CLR,0.00,0.00,VWS V14.01,2013-10-01 06:01:00,
2013-10-01 02:06:00,54.8,52.2,29.99,SE,145,0.0,0.0,91,0.00,,CLR,0.00,0.00,VWS V14.01,2013-10-01 06:06:00,
2013-10-01 02:11:00,54.7,52.1,29.99,SE,145,0.0,0.0,91,0.00,,CLR,0.00,0.00,VWS V14.01,2013-10-01 06:11:00,
2013-10-01 02:16:00,54.6,52.0,29.99,SE,145,0.0,0.0,91,0.00,,CLR,0.00,0.00,VWS V14.01,2013-10-01 06:16:00,
2013-10-01 02:21:00,54.5,51.9,29.99,SE,144,0.0,0.0,91,0.00,,CLR,0.00,0.00,VWS V14.01,2013-10-01 06:21:00,
2013-10-01 02:27:00,54.4,52.1,29.99,SE,145,0.0,0.0,92,0.00,,CLR,0.00,0.00,VWS V14.01,2013-10-01 06:27:00,
2013-10-01 02:32:00,54.4,52.1,29.99,SE,145,0.0,0.0,92,0.00,,CLR,0.00,0.00,VWS V14.01,2013-10-01 06:32:00,
2013-10-01 02:37:00,54.2,51.9,29.99,SE,145,0.0,0.0,92,0.00,,CLR,0.00,0.00,VWS V14.01,2013-10-01 06:37:00,
2013-10-01 02:42:00,54.2,51.9,29.99,SE,145,0.0,0.0,92,0.00,,CLR,0.00,0.00,VWS V14.01,2013-10-01 06:42:00,
2013-10-01 02:47:00,54.1,51.8,29.99,SE,145,0.0,0.0,92,0.00,,CLR,0.00,0.00,VWS V14.01,2013-10-01 06:47:00,
2013-10-01 02:52:00,54.1,52.1,29.99,SE,145,0.0,0.0,93,0.00,,CLR,0.00,0.00,VWS V14.01,2013-10-01 06:52:00,
2013-10-01 02:58:00,54.2,52.2,29.99,SE,145,0.0,0.0,93,0.00,,CLR,0.00,0.00,VWS V14.01,2013-10-01 06:58:00,
2013-10-01 03:03:00,54.2,52.2,29.99,SE,145,0.0,0.0,93,0.00,,CLR,0.00,0.00,VWS V14.01,2013-10-01 07:03:00,
2013-10-01 03:08:00,54.2,52.2,29.99,SE,145,0.0,0.0,93,0.00,,CLR,0.00,0.00,VWS V14.01,2013-10-01 07:08:00,
2013-10-01 03:13:00,54.2,52.5,29.99,SE,145,0.0,0.0,94,0.00,,CLR,0.00,0.00,VWS V14.01,2013-10-01 07:13:00,
2013-10-01 03:19:00,54.3,52.6,29.99,SE,145,0.0,0.0,94,0.00,,CLR,0.00,0.00,VWS V14.01,2013-10-01 07:19:00,
2013-10-01 03:24:00,54.3,52.6,29.99,SE,145,0.0,0.0,94,0.00,,CLR,0.00,0.00,VWS V14.01,2013-10-01 07:24:00,
2013-10-01 03:30:00,54.3,52.6,29.99,SE,145,0.0,0.0,94,0.00,,CLR,0.00,0.00,VWS V14.01,2013-10-01 07:30:00,
2013-10-01 03:35:00,54.3,52.6,29.99,SE,145,0.0,0.0,94,0.00,,CLR,0.00,0.00,VWS V14.01,2013-10-01 07:35:00,
2013-10-01 03:40:00,54.3,52.6,29.99,SE,145,0.0,0.0,94,0.00,,CLR,0.00,0.00,VWS V14.01,2013-10-01 07:40:00,
2013-10-01 03:45:00,54.2,52.5,29.99,SE,145,0.0,0.0,94,0.00,,CLR,0.00,0.00,VWS V14.01,2013-10-01 07:45:00,
2013-10-01 03:50:00,54.1,52.4,29.99,SE,145,0.0,0.0,94,0.00,,CLR,0.00,0.00,VWS V14.01,2013-10-01 07:50:00,
2013-10-01 03:55:00,54.0,52.3,29.99,SE,145,0.0,0.0,94,0.00,,CLR,0.00,0.00,VWS V14.01,2013-10-01 07:55:00,
2013-10-01 04:00:00,54.0,52.6,29.99,SE,145,0.0,0.0,95,0.00,,CLR,0.00,0.00,VWS V14.01,2013-10-01 08:00:00,
2013-10-01 04:05:00,53.9,52.5,29.99,SE,145,0.0,0.0,95,0.00,,CLR,0.00,0.00,VWS V14.01,2013-10-01 08:05:00,
2013-10-01 04:11:00,53.9,52.5,30.00,SE,145,0.0,0.0,95,0.00,,CLR,0.00,0.00,VWS V14.01,2013-10-01 08:11:00,
2013-10-01 04:16:00,53.9,52.5,30.00,SE,145,0.0,0.0,95,0.00,,CLR,0.00,0.00,VWS V14.01,2013-10-01 08:16:00,
2013-10-01 04:21:00,53.8,52.4,30.00,SE,145,0.0,0.0,95,0.00,,CLR,0.00,0.00,VWS V14.01,2013-10-01 08:21:00,
2013-10-01 04:26:00,53.7,52.3,30.00,SE,145,0.0,0.0,95,0.00,,CLR,0.00,0.00,VWS V14.01,2013-10-01 08:26:00,
2013-10-01 04:31:00,53.6,52.2,30.00,SE,145,0.0,0.0,95,0.00,,CLR,0.00,0.00,VWS V14.01,2013-10-01 08:31:00,
2013-10-01 04:36:00,53.5,52.1,30.00,SE,145,0.0,0.0,95,0.00,,CLR,0.00,0.00,VWS V14.01,2013-10-01 08:36:00,
2013-10-01 04:41:00,53.5,52.1,30.00,SE,145,0.0,0.0,95,0.00,,CLR,0.00,0.00,VWS V14.01,2013-10-01 08:41:00,
2013-10-01 04:46:00,53.4,52.0,30.00,SE,145,0.0,0.0,95,0.00,,CLR,0.00,0.00,VWS V14.01,2013-10-01 08:46:00,
2013-10-01 04:51:00,53.3,51.9,30.00,SE,145,0.0,0.0,95,0.00,,CLR,0.00,0.00,VWS V14.01,2013-10-01 08:51:00,
2013-10-01 04:57:00,53.3,51.9,30.00,SE,144,0.0,0.0,95,0.00,,CLR,0.00,0.00,VWS V14.01,2013-10-01 08:57:00,
2013-10-01 05:02:00,53.3,51.9,30.00,SE,145,0.0,0.0,95,0.00,,CLR,0.00,0.00,VWS V14.01,2013-10-01 09:02:00,
2013-10-01 05:07:00,53.5,52.4,30.01,SE,145,0.0,0.0,96,0.00,,CLR,0.00,0.00,VWS V14.01,2013-10-01 09:07:00,
2013-10-01 05:12:00,53.7,52.6,30.01,SE,145,0.0,0.0,96,0.00,,CLR,0.00,0.00,VWS V14.01,2013-10-01 09:12:00,
2013-10-01 05:17:00,53.9,52.8,30.01,SE,145,0.0,0.0,96,0.00,,CLR,0.00,0.00,VWS V14.01,2013-10-01 09:17:00,
2013-10-01 05:22:00,53.9,52.8,30.01,SE,145,0.0,0.0,96,0.00,,CLR,0.00,0.00,VWS V14.01,2013-10-01 09:22:00,
2013-10-01 05:27:00,53.9,52.8,30.01,SE,145,0.0,0.0,96,0.00,,CLR,0.00,0.00,VWS V14.01,2013-10-01 09:27:00,
2013-10-01 05:32:00,53.9,52.8,30.01,SE,145,0.0,0.0,96,0.00,,CLR,0.00,0.00,VWS V14.01,2013-10-01 09:32:00,
2013-10-01 05:37:00,53.9,52.8,30.01,SE,144,0.0,0.0,96,0.00,,CLR,0.00,0.00,VWS V14.01,2013-10-01 09:37:00,
2013-10-01 05:43:00,54.0,52.9,30.01,SE,145,0.0,0.0,96,0.00,,CLR,0.00,0.00,VWS V14.01,2013-10-01 09:43:00,
2013-10-01 05:48:00,54.1,53.3,30.02,SE,145,0.0,0.0,97,0.00,,CLR,0.00,0.00,VWS V14.01,2013-10-01 09:48:00,
2013-10-01 05:53:00,54.3,53.5,30.02,SE,145,0.0,0.0,97,0.00,,CLR,0.00,0.00,VWS V14.01,2013-10-01 09:53:00,
2013-10-01 05:58:00,54.4,53.6,30.02,SE,145,0.0,0.0,97,0.00,,CLR,0.00,0.00,VWS V14.01,2013-10-01 09:58:00,
2013-10-01 06:03:00,54.5,53.7,30.02,SE,144,0.0,0.0,97,0.00,,CLR,0.00,0.00,VWS V14.01,2013-10-01 10:03:00,
2013-10-01 06:08:00,54.5,53.7,30.02,SE,145,0.0,0.0,97,0.00,,CLR,0.00,0.00,VWS V14.01,2013-10-01 10:08:00,
2013-10-01 06:13:00,54.5,53.7,30.01,SE,145,0.0,0.0,97,0.00,,CLR,0.00,0.00,VWS V14.01,2013-10-01 10:13:00,
2013-10-01 06:18:00,54.4,53.6,30.02,SE,145,0.0,0.0,97,0.00,,CLR,0.00,0.00,VWS V14.01,2013-10-01 10:18:00,
2013-10-01 06:24:00,54.4,53.6,30.02,SE,145,0.0,0.0,97,0.00,,CLR,0.00,0.00,VWS V14.01,2013-10-01 10:24:00,
2013-10-01 06:29:00,54.2,53.4,30.02,SE,145,0.0,0.0,97,0.00,,CLR,0.00,0.00,VWS V14.01,2013-10-01 10:29:00,
2013-10-01 06:34:00,54.1,53.3,30.02,SE,145,0.0,0.0,97,0.00,,CLR,0.00,0.00,VWS V14.01,2013-10-01 10:34:00,
2013-10-01 06:39:00,53.9,53.1,30.02,SE,145,0.0,0.0,97,0.00,,CLR,0.00,0.00,VWS V14.01,2013-10-01 10:39:00,
2013-10-01 06:44:00,53.7,52.9,30.02,SE,145,0.0,0.0,97,0.00,,CLR,0.00,0.00,VWS V14.01,2013-10-01 10:44:00,
2013-10-01 06:49:00,53.5,52.4,30.02,SE,145,0.0,0.0,96,0.00,,CLR,0.00,0.00,VWS V14.01,2013-10-01 10:49:00,
2013-10-01 06:55:00,53.4,52.3,30.02,SE,145,0.0,0.0,96,0.00,,CLR,0.00,0.00,VWS V14.01,2013-10-01 10:55:00,
2013-10-01 07:00:00,53.2,52.4,30.03,SE,145,0.0,0.0,97,0.00,,CLR,0.00,0.00,VWS V14.01,2013-10-01 11:00:00,
2013-10-01 07:05:00,53.1,52.3,30.03,SE,145,0.0,0.0,97,0.00,,CLR,0.00,0.00,VWS V14.01,2013-10-01 11:05:00,
2013-10-01 07:10:00,52.9,51.8,30.03,SE,145,0.0,0.0,96,0.00,,CLR,0.00,5.00,VWS V14.01,2013-10-01 11:10:00,
2013-10-01 07:15:00,52.8,52.0,30.03,SE,145,0.0,0.0,97,0.00,,CLR,0.00,9.00,VWS V14.01,2013-10-01 11:15:00,
2013-10-01 07:20:00,52.8,52.0,30.03,SE,145,0.0,0.0,97,0.00,,CLR,0.00,12.00,VWS V14.01,2013-10-01 11:20:00,
2013-10-01 07:25:00,52.9,52.1,30.03,SE,145,0.0,0.0,97,0.00,,CLR,0.00,18.00,VWS V14.01,2013-10-01 11:25:00,
2013-10-01 07:30:00,52.9,52.1,30.03,SE,144,0.0,0.0,97,0.00,,CLR,0.00,26.00,VWS V14.01,2013-10-01 11:30:00,
2013-10-01 07:35:00,53.1,52.3,30.03,SE,144,0.0,0.0,97,0.00,,CLR,0.00,28.00,VWS V14.01,2013-10-01 11:35:00,
2013-10-01 07:40:00,53.2,52.4,30.04,South,169,0.0,0.0,97,0.00,,CLR,0.00,28.00,VWS V14.01,2013-10-01 11:40:00,
2013-10-01 07:46:00,53.4,52.6,30.04,South,169,0.0,0.0,97,0.00,,CLR,0.00,32.00,VWS V14.01,2013-10-01 11:46:00,
2013-10-01 07:51:00,53.6,52.8,30.05,South,169,0.0,0.0,97,0.00,,CLR,0.00,40.00,VWS V14.01,2013-10-01 11:51:00,
2013-10-01 07:56:00,53.8,53.0,30.05,South,169,0.0,0.0,97,0.00,,CLR,0.00,42.00,VWS V14.01,2013-10-01 11:56:00,
2013-10-01 08:01:00,54.0,53.5,30.05,South,169,0.0,0.0,98,0.00,,CLR,0.00,60.00,VWS V14.01,2013-10-01 12:01:00,
2013-10-01 08:07:00,55.2,54.7,30.05,South,169,0.0,0.0,98,0.00,,CLR,0.00,102.00,VWS V14.01,2013-10-01 12:07:00,
2013-10-01 08:12:00,56.0,55.5,30.05,South,169,0.0,0.0,98,0.00,,CLR,0.00,93.00,VWS V14.01,2013-10-01 12:12:00,
2013-10-01 08:17:00,56.6,56.0,30.05,South,169,0.0,0.0,98,0.00,,CLR,0.00,91.00,VWS V14.01,2013-10-01 12:17:00,
2013-10-01 08:22:00,56.9,56.3,30.05,South,169,0.0,1.0,98,0.00,,CLR,0.00,83.00,VWS V14.01,2013-10-01 12:22:00,
2013-10-01 08:27:00,57.0,56.4,30.05,South,169,0.0,1.0,98,0.00,,CLR,0.00,132.00,VWS V14.01,2013-10-01 12:27:00,
2013-10-01 08:32:00,57.5,56.9,30.05,South,169,0.0,1.0,98,0.00,,CLR,0.00,176.00,VWS V14.01,2013-10-01 12:32:00,
2013-10-01 08:37:00,57.9,57.3,30.05,South,184,0.0,1.0,98,0.00,,CLR,0.00,248.00,VWS V14.01,2013-10-01 12:37:00,
2013-10-01 08:42:00,58.4,57.8,30.05,SSW,198,0.0,1.0,98,0.00,,CLR,0.00,257.00,VWS V14.01,2013-10-01 12:42:00,
2013-10-01 08:48:00,59.0,58.4,30.05,South,191,0.0,1.0,98,0.00,,CLR,0.00,223.00,VWS V14.01,2013-10-01 12:48:00,
2013-10-01 08:53:00,59.6,59.0,30.04,South,191,0.0,1.0,98,0.00,,CLR,0.00,181.00,VWS V14.01,2013-10-01 12:53:00,
2013-10-01 08:58:00,60.1,59.2,30.05,South,191,0.0,1.0,97,0.00,,CLR,0.00,93.00,VWS V14.01,2013-10-01 12:58:00,
2013-10-01 09:03:00,60.2,59.1,30.05,South,191,0.0,1.0,96,0.00,,CLR,0.00,72.00,VWS V14.01,2013-10-01 13:03:00,
2013-10-01 09:08:00,60.2,58.8,30.05,South,191,0.0,1.0,95,0.00,,CLR,0.00,86.00,VWS V14.01,2013-10-01 13:08:00,
2013-10-01 09:13:00,60.6,59.2,30.05,South,191,0.0,0.0,95,0.00,,CLR,0.00,255.00,VWS V14.01,2013-10-01 13:13:00,
2013-10-01 09:19:00,61.3,59.6,30.05,SSW,211,0.0,1.0,94,0.00,,CLR,0.00,294.00,VWS V14.01,2013-10-01 13:19:00,
2013-10-01 09:24:00,62.0,59.3,30.05,WSW,240,1.0,3.0,91,0.00,,CLR,0.00,373.00,VWS V14.01,2013-10-01 13:24:00,
2013-10-01 09:29:00,62.9,59.9,30.05,WSW,240,0.0,0.0,90,0.00,,CLR,0.00,251.00,VWS V14.01,2013-10-01 13:29:00,
2013-10-01 09:34:00,63.6,60.0,30.05,WSW,237,0.0,1.0,88,0.00,,CLR,0.00,276.00,VWS V14.01,2013-10-01 13:34:00,
2013-10-01 09:39:00,64.4,60.1,30.05,WSW,237,0.0,1.0,86,0.00,,CLR,0.00,464.00,VWS V14.01,2013-10-01 13:39:00,
2013-10-01 09:44:00,65.4,60.8,30.05,SW,229,0.0,0.0,85,0.00,,CLR,0.00,524.00,VWS V14.01,2013-10-01 13:44:00,
2013-10-01 09:49:00,66.0,60.7,30.05,SW,229,1.0,1.0,83,0.00,,CLR,0.00,427.00,VWS V14.01,2013-10-01 13:49:00,
2013-10-01 09:54:00,66.3,60.7,30.05,SSW,196,0.0,0.0,82,0.00,,CLR,0.00,339.00,VWS V14.01,2013-10-01 13:54:00,
2013-10-01 09:59:00,66.5,60.5,30.05,SSW,205,1.0,1.0,81,0.00,,CLR,0.00,271.00,VWS V14.01,2013-10-01 13:59:00,
2013-10-01 10:04:00,66.8,60.4,30.05,SSW,205,1.0,3.0,80,0.00,,CLR,0.00,564.00,VWS V14.01,2013-10-01 14:04:00,
2013-10-01 10:10:00,67.5,60.8,30.05,SSW,206,0.0,0.0,79,0.00,,CLR,0.00,543.00,VWS V14.01,2013-10-01 14:10:00,
2013-10-01 10:15:00,68.3,61.5,30.05,WSW,237,1.0,1.0,79,0.00,,CLR,0.00,504.00,VWS V14.01,2013-10-01 14:15:00,
2013-10-01 10:20:00,68.7,61.6,30.05,WSW,240,0.0,3.0,78,0.00,,CLR,0.00,450.00,VWS V14.01,2013-10-01 14:20:00,
2013-10-01 10:25:00,68.8,60.9,30.05,WSW,240,0.0,2.0,76,0.00,,CLR,0.00,431.00,VWS V14.01,2013-10-01 14:25:00,
2013-10-01 10:30:00,68.9,61.0,30.04,WSW,239,0.0,1.0,76,0.00,,CLR,0.00,397.00,VWS V14.01,2013-10-01 14:30:00,
2013-10-01 10:35:00,69.3,61.8,30.05,WSW,239,0.0,1.0,77,0.00,,CLR,0.00,383.00,VWS V14.01,2013-10-01 14:35:00,
2013-10-01 10:40:00,70.1,62.6,30.04,WSW,238,0.0,1.0,77,0.00,,CLR,0.00,364.00,VWS V14.01,2013-10-01 14:40:00,
2013-10-01 10:45:00,70.6,62.3,30.04,North,351,0.0,1.0,75,0.00,,CLR,0.00,355.00,VWS V14.01,2013-10-01 14:45:00,
2013-10-01 10:50:00,70.8,61.3,30.05,NNW,329,0.0,4.0,72,0.00,,CLR,0.00,364.00,VWS V14.01,2013-10-01 14:50:00,
2013-10-01 10:56:00,71.1,61.2,30.04,NNW,327,2.0,5.0,71,0.00,,CLR,0.00,378.00,VWS V14.01,2013-10-01 14:56:00,
2013-10-01 11:01:00,71.2,61.3,30.04,NW,326,0.0,1.0,71,0.00,,CLR,0.00,399.00,VWS V14.01,2013-10-01 15:01:00,
2013-10-01 11:06:00,71.7,61.8,30.04,NNW,336,0.0,3.0,71,0.00,,CLR,0.00,439.00,VWS V14.01,2013-10-01 15:06:00,
2013-10-01 11:11:00,72.1,62.6,30.04,NW,315,4.0,4.0,72,0.00,,CLR,0.00,475.00,VWS V14.01,2013-10-01 15:11:00,
2013-10-01 11:16:00,72.5,61.3,30.04,NW,322,4.0,4.0,68,0.00,,CLR,0.00,504.00,VWS V14.01,2013-10-01 15:16:00,
2013-10-01 11:21:00,72.6,62.3,30.04,NNW,348,5.0,5.0,70,0.00,,CLR,0.00,534.00,VWS V14.01,2013-10-01 15:21:00,
2013-10-01 11:26:00,72.7,61.1,30.03,NNW,343,0.0,2.0,67,0.00,,CLR,0.00,559.00,VWS V14.01,2013-10-01 15:26:00,
2013-10-01 11:31:00,73.0,61.4,30.03,North,355,0.0,4.0,67,0.00,,CLR,0.00,564.00,VWS V14.01,2013-10-01 15:31:00,
2013-10-01 11:37:00,73.3,62.1,30.03,NW,312,2.0,5.0,68,0.00,,CLR,0.00,559.00,VWS V14.01,2013-10-01 15:37:00,
2013-10-01 11:42:00,73.3,61.7,30.03,NW,325,1.0,6.0,67,0.00,,CLR,0.00,529.00,VWS V14.01,2013-10-01 15:42:00,
2013-10-01 11:47:00,73.5,62.3,30.03,NNW,344,3.0,6.0,68,0.00,,CLR,0.00,499.00,VWS V14.01,2013-10-01 15:47:00,
2013-10-01 11:52:00,73.7,62.5,30.03,North,349,0.0,6.0,68,0.00,,CLR,0.00,471.00,VWS V14.01,2013-10-01 15:52:00,
2013-10-01 11:57:00,74.1,63.3,30.03,NNW,337,3.0,7.0,69,0.00,,CLR,0.00,464.00,VWS V14.01,2013-10-01 15:57:00,
2013-10-01 12:02:00,74.3,62.6,30.02,North,360,4.0,6.0,67,0.00,,CLR,0.00,473.00,VWS V14.01,2013-10-01 16:02:00,
2013-10-01 12:08:00,74.7,62.6,30.02,NW,304,0.0,7.0,66,0.00,,CLR,0.00,510.00,VWS V14.01,2013-10-01 16:08:00,
2013-10-01 12:13:00,75.3,64.0,30.02,NNE,19,0.0,5.0,68,0.00,,CLR,0.00,531.00,VWS V14.01,2013-10-01 16:13:00,
2013-10-01 12:18:00,75.6,63.5,30.02,NNW,330,0.0,4.0,66,0.00,,CLR,0.00,533.00,VWS V14.01,2013-10-01 16:18:00,
2013-10-01 12:23:00,75.8,62.8,30.02,NNW,336,0.0,4.0,64,0.00,,CLR,0.00,531.00,VWS V14.01,2013-10-01 16:23:00,
2013-10-01 12:29:00,76.2,63.1,30.01,NW,317,4.0,5.0,64,0.00,,CLR,0.00,589.00,VWS V14.01,2013-10-01 16:29:00,
2013-10-01 12:33:00,76.2,63.1,30.01,NW,309,2.0,7.0,64,0.00,,CLR,0.00,160.00,VWS V14.01,2013-10-01 16:33:00,
2013-10-01 12:38:00,76.0,63.8,30.01,NW,314,1.0,4.0,66,0.00,,CLR,0.00,392.00,VWS V14.01,2013-10-01 16:38:00,
2013-10-01 12:43:00,76.0,63.8,30.01,NNW,346,3.0,6.0,66,0.00,,CLR,0.00,540.00,VWS V14.01,2013-10-01 16:43:00,
2013-10-01 12:48:00,76.4,62.9,30.01,NNW,329,2.0,9.0,63,0.00,,CLR,0.00,555.00,VWS V14.01,2013-10-01 16:48:00,
2013-10-01 12:53:00,76.6,63.5,30.01,NNW,331,2.0,5.0,64,0.00,,CLR,0.00,392.00,VWS V14.01,2013-10-01 16:53:00,
2013-10-01 12:59:00,76.7,62.7,30.01,North,360,6.0,10.0,62,0.00,,CLR,0.00,561.00,VWS V14.01,2013-10-01 16:59:00,
2013-10-01 13:04:00,77.0,63.5,30.00,NW,318,0.0,7.0,63,0.00,,CLR,0.00,650.00,VWS V14.01,2013-10-01 17:04:00,
2013-10-01 13:09:00,77.5,63.9,30.00,NW,309,3.0,3.0,63,0.00,,CLR,0.00,675.00,VWS V14.01,2013-10-01 17:09:00,
2013-10-01 13:14:00,77.7,63.2,30.00,NE,44,1.0,7.0,61,0.00,,CLR,0.00,693.00,VWS V14.01,2013-10-01 17:14:00,
2013-10-01 13:19:00,78.0,64.4,29.99,WNW,284,0.0,5.0,63,0.00,,CLR,0.00,728.00,VWS V14.01,2013-10-01 17:19:00,
2013-10-01 13:24:00,78.5,63.5,29.99,NNW,333,0.0,0.0,60,0.00,,CLR,0.00,758.00,VWS V14.01,2013-10-01 17:24:00,
2013-10-01 13:29:00,78.9,65.7,29.99,NW,304,3.0,4.0,64,0.00,,CLR,0.00,751.00,VWS V14.01,2013-10-01 17:29:00,
2013-10-01 13:34:00,79.2,63.7,29.98,NNW,334,4.0,4.0,59,0.00,,CLR,0.00,770.00,VWS V14.01,2013-10-01 17:34:00,
2013-10-01 13:39:00,79.4,63.3,29.98,South,169,2.0,3.0,58,0.00,,CLR,0.00,759.00,VWS V14.01,2013-10-01 17:39:00,
2013-10-01 13:45:00,79.9,63.3,29.98,WNW,283,1.0,9.0,57,0.00,,CLR,0.00,789.00,VWS V14.01,2013-10-01 17:45:00,
2013-10-01 13:50:00,80.1,63.5,29.98,NW,306,1.0,8.0,57,0.00,,CLR,0.00,884.00,VWS V14.01,2013-10-01 17:50:00,
2013-10-01 13:55:00,80.2,62.6,29.98,North,355,6.0,8.0,55,0.00,,CLR,0.00,891.00,VWS V14.01,2013-10-01 17:55:00,
2013-10-01 14:00:00,79.8,62.7,29.98,SSW,211,1.0,4.0,56,0.00,,CLR,0.00,264.00,VWS V14.01,2013-10-01 18:00:00,
2013-10-01 14:05:00,79.2,62.2,29.97,North,351,0.0,0.0,56,0.00,,CLR,0.00,207.00,VWS V14.01,2013-10-01 18:05:00,
2013-10-01 14:10:00,78.7,62.2,29.97,NNW,344,0.0,4.0,57,0.00,,CLR,0.00,255.00,VWS V14.01,2013-10-01 18:10:00,
2013-10-01 14:15:00,78.5,62.5,29.97,WNW,302,0.0,1.0,58,0.00,,CLR,0.00,343.00,VWS V14.01,2013-10-01 18:15:00,
2013-10-01 14:21:00,78.7,62.7,29.97,NNW,341,0.0,3.0,58,0.00,,CLR,0.00,343.00,VWS V14.01,2013-10-01 18:21:00,
2013-10-01 14:26:00,79.4,62.3,29.97,NNW,336,8.0,8.0,56,0.00,,CLR,0.00,255.00,VWS V14.01,2013-10-01 18:26:00,
2013-10-01 14:31:00,79.7,62.6,29.96,NW,322,0.0,6.0,56,0.00,,CLR,0.00,738.00,VWS V14.01,2013-10-01 18:31:00,
2013-10-01 14:36:00,79.4,61.3,29.96,West,281,6.0,11.0,54,0.00,,CLR,0.00,701.00,VWS V14.01,2013-10-01 18:36:00,
2013-10-01 14:41:00,79.1,61.0,29.96,NNW,334,7.0,8.0,54,0.00,,CLR,0.00,172.00,VWS V14.01,2013-10-01 18:41:00,
2013-10-01 14:46:00,78.7,60.7,29.96,NW,321,3.0,8.0,54,0.00,,CLR,0.00,633.00,VWS V14.01,2013-10-01 18:46:00,
2013-10-01 14:51:00,79.2,60.6,29.96,NNW,343,5.0,9.0,53,0.00,,CLR,0.00,629.00,VWS V14.01,2013-10-01 18:51:00,
2013-10-01 14:57:00,80.0,61.3,29.96,NW,326,9.0,9.0,53,0.00,,CLR,0.00,719.00,VWS V14.01,2013-10-01 18:57:00,
2013-10-01 15:02:00,79.9,60.2,29.96,NW,323,4.0,8.0,51,0.00,,CLR,0.00,336.00,VWS V14.01,2013-10-01 19:02:00,
2013-10-01 15:07:00,79.7,61.1,29.95,NNW,336,6.0,7.0,53,0.00,,CLR,0.00,483.00,VWS V14.01,2013-10-01 19:07:00,
2013-10-01 15:12:00,79.9,61.3,29.95,North,355,2.0,5.0,53,0.00,,CLR,0.00,197.00,VWS V14.01,2013-10-01 19:12:00,
2013-10-01 15:17:00,79.6,61.0,29.95,NNW,329,3.0,8.0,53,0.00,,CLR,0.00,149.00,VWS V14.01,2013-10-01 19:17:00,
2013-10-01 15:22:00,79.1,61.0,29.95,NW,317,1.0,4.0,54,0.00,,CLR,0.00,130.00,VWS V14.01,2013-10-01 19:22:00,
2013-10-01 15:27:00,78.7,60.7,29.95,NNW,333,0.0,8.0,54,0.00,,CLR,0.00,139.00,VWS V14.01,2013-10-01 19:27:00,
2013-10-01 15:32:00,78.5,61.5,29.95,NNW,333,1.0,1.0,56,0.00,,CLR,0.00,171.00,VWS V14.01,2013-10-01 19:32:00,
2013-10-01 15:38:00,78.4,61.4,29.95,WNW,300,4.0,4.0,56,0.00,,CLR,0.00,214.00,VWS V14.01,2013-10-01 19:38:00,
2013-10-01 15:43:00,78.5,61.0,29.94,NW,321,4.0,5.0,55,0.00,,CLR,0.00,236.00,VWS V14.01,2013-10-01 19:43:00,
2013-10-01 15:48:00,78.5,61.0,29.94,North,355,3.0,6.0,55,0.00,,CLR,0.00,216.00,VWS V14.01,2013-10-01 19:48:00,
2013-10-01 15:53:00,78.5,61.5,29.94,NNW,345,0.0,5.0,56,0.00,,CLR,0.00,181.00,VWS V14.01,2013-10-01 19:53:00,
2013-10-01 15:58:00,78.4,61.4,29.94,NW,326,1.0,4.0,56,0.00,,CLR,0.00,118.00,VWS V14.01,2013-10-01 19:58:00,
2013-10-01 16:03:00,78.4,62.4,29.94,NW,326,0.0,1.0,58,0.00,,CLR,0.00,135.00,VWS V14.01,2013-10-01 20:03:00,
2013-10-01 16:08:00,78.7,61.7,29.94,NNW,329,0.0,4.0,56,0.00,,CLR,0.00,156.00,VWS V14.01,2013-10-01 20:08:00,
2013-10-01 16:13:00,79.1,62.6,29.94,NNW,329,0.0,3.0,57,0.00,,CLR,0.00,181.00,VWS V14.01,2013-10-01 20:13:00,
2013-10-01 16:18:00,79.2,62.2,29.94,NW,304,0.0,1.0,56,0.00,,CLR,0.00,142.00,VWS V14.01,2013-10-01 20:18:00,
2013-10-01 16:23:00,79.0,62.5,29.94,West,266,0.0,2.0,57,0.00,,CLR,0.00,132.00,VWS V14.01,2013-10-01 20:23:00,
2013-10-01 16:29:00,78.7,62.2,29.94,NW,323,0.0,5.0,57,0.00,,CLR,0.00,109.00,VWS V14.01,2013-10-01 20:29:00,
2013-10-01 16:34:00,78.4,62.4,29.94,NW,323,0.0,5.0,58,0.00,,CLR,0.00,350.00,VWS V14.01,2013-10-01 20:34:00,
2013-10-01 16:39:00,78.2,62.2,29.94,NW,323,0.0,2.0,58,0.00,,CLR,0.00,107.00,VWS V14.01,2013-10-01 20:39:00,
2013-10-01 16:44:00,78.4,62.4,29.94,NW,323,0.0,1.0,58,0.00,,CLR,0.00,357.00,VWS V14.01,2013-10-01 20:44:00,
2013-10-01 16:49:00,78.8,62.3,29.94,NW,323,2.0,2.0,57,0.00,,CLR,0.00,348.00,VWS V14.01,2013-10-01 20:49:00,
2013-10-01 16:54:00,79.3,61.8,29.94,NW,323,0.0,0.0,55,0.00,,CLR,0.00,367.00,VWS V14.01,2013-10-01 20:54:00,
2013-10-01 16:59:00,79.8,62.2,29.94,SSW,198,3.0,3.0,55,0.00,,CLR,0.00,366.00,VWS V14.01,2013-10-01 20:59:00,
2013-10-01 17:04:00,80.3,62.7,29.94,WNW,302,0.0,0.0,55,0.00,,CLR,0.00,288.00,VWS V14.01,2013-10-01 21:04:00,
2013-10-01 17:09:00,80.4,62.8,29.94,NW,308,0.0,0.0,55,0.00,,CLR,0.00,281.00,VWS V14.01,2013-10-01 21:09:00,
2013-10-01 17:14:00,80.4,61.2,29.93,NW,316,0.0,0.0,52,0.00,,CLR,0.00,264.00,VWS V14.01,2013-10-01 21:14:00,
2013-10-01 17:19:00,80.2,61.5,29.93,WNW,296,1.0,3.0,53,0.00,,CLR,0.00,229.00,VWS V14.01,2013-10-01 21:19:00,
2013-10-01 17:24:00,79.8,61.2,29.93,North,355,4.0,6.0,53,0.00,,CLR,0.00,84.00,VWS V14.01,2013-10-01 21:24:00,
2013-10-01 17:30:00,79.7,61.1,29.94,NW,326,0.0,0.0,53,0.00,,CLR,0.00,62.00,VWS V14.01,2013-10-01 21:30:00,
2013-10-01 17:35:00,79.5,61.4,29.94,NNW,330,0.0,0.0,54,0.00,,CLR,0.00,74.00,VWS V14.01,2013-10-01 21:35:00,
2013-10-01 17:40:00,79.3,61.8,29.94,NNW,329,1.0,1.0,55,0.00,,CLR,0.00,67.00,VWS V14.01,2013-10-01 21:40:00,
2013-10-01 17:45:00,79.0,62.0,29.94,NNW,330,0.0,1.0,56,0.00,,CLR,0.00,63.00,VWS V14.01,2013-10-01 21:45:00,
2013-10-01 17:50:00,78.8,61.8,29.94,NW,313,1.0,8.0,56,0.00,,CLR,0.00,58.00,VWS V14.01,2013-10-01 21:50:00,
2013-10-01 17:55:00,78.7,61.7,29.94,NW,310,0.0,1.0,56,0.00,,CLR,0.00,67.00,VWS V14.01,2013-10-01 21:55:00,
2013-10-01 18:01:00,78.4,61.4,29.94,WNW,299,0.0,1.0,56,0.00,,CLR,0.00,69.00,VWS V14.01,2013-10-01 22:01:00,
2013-10-01 18:06:00,78.2,61.7,29.94,WNW,298,0.0,0.0,57,0.00,,CLR,0.00,67.00,VWS V14.01,2013-10-01 22:06:00,
2013-10-01 18:11:00,78.0,61.5,29.94,WNW,296,0.0,1.0,57,0.00,,CLR,0.00,56.00,VWS V14.01,2013-10-01 22:11:00,
2013-10-01 18:16:00,77.9,61.5,29.94,WSW,255,0.0,0.0,57,0.00,,CLR,0.00,46.00,VWS V14.01,2013-10-01 22:16:00,
2013-10-01 18:21:00,77.8,61.9,29.94,WSW,255,0.0,1.0,58,0.00,,CLR,0.00,42.00,VWS V14.01,2013-10-01 22:21:00,
2013-10-01 18:27:00,77.6,61.7,29.94,WSW,254,0.0,0.0,58,0.00,,CLR,0.00,39.00,VWS V14.01,2013-10-01 22:27:00,
2013-10-01 18:32:00,77.4,61.5,29.94,WSW,254,0.0,1.0,58,0.00,,CLR,0.00,33.00,VWS V14.01,2013-10-01 22:32:00,
2013-10-01 18:37:00,77.2,60.8,29.94,WSW,254,0.0,2.0,57,0.00,,CLR,0.00,21.00,VWS V14.01,2013-10-01 22:37:00,
2013-10-01 18:42:00,77.0,61.1,29.94,WSW,254,0.0,0.0,58,0.00,,CLR,0.00,12.00,VWS V14.01,2013-10-01 22:42:00,
2013-10-01 18:47:00,76.7,60.8,29.94,WSW,254,0.0,1.0,58,0.00,,CLR,0.00,7.00,VWS V14.01,2013-10-01 22:47:00,
2013-10-01 18:52:00,76.4,61.0,29.94,WSW,254,0.0,0.0,59,0.00,,CLR,0.00,5.00,VWS V14.01,2013-10-01 22:52:00,
2013-10-01 18:57:00,76.0,61.1,29.94,WSW,254,0.0,0.0,60,0.00,,CLR,0.00,0.00,VWS V14.01,2013-10-01 22:57:00,
2013-10-01 19:02:00,75.6,60.8,29.94,WSW,254,0.0,0.0,60,0.00,,CLR,0.00,0.00,VWS V14.01,2013-10-01 23:02:00,
2013-10-01 19:07:00,75.1,60.8,29.94,WSW,254,0.0,0.0,61,0.00,,CLR,0.00,0.00,VWS V14.01,2013-10-01 23:07:00,
2013-10-01 19:12:00,74.7,60.8,29.94,WSW,254,0.0,0.0,62,0.00,,CLR,0.00,0.00,VWS V14.01,2013-10-01 23:12:00,
2013-10-01 19:17:00,74.3,60.9,29.95,WSW,254,0.0,0.0,63,0.00,,CLR,0.00,0.00,VWS V14.01,2013-10-01 23:17:00,
2013-10-01 19:20:00,74.0,60.6,29.95,WSW,254,0.0,0.0,63,0.00,,CLR,0.00,0.00,VWS V14.01,2013-10-01 23:20:00,
2013-10-01 19:25:00,73.5,60.6,29.95,WSW,254,0.0,0.0,64,0.00,,CLR,0.00,0.00,VWS V14.01,2013-10-01 23:25:00,
2013-10-01 19:30:00,73.0,60.5,29.95,WSW,254,0.0,0.0,65,0.00,,CLR,0.00,0.00,VWS V14.01,2013-10-01 23:30:00,
2013-10-01 19:35:00,72.4,60.4,29.95,WSW,254,0.0,0.0,66,0.00,,CLR,0.00,0.00,VWS V14.01,2013-10-01 23:35:00,
2013-10-01 19:40:00,71.8,60.3,29.95,WSW,254,0.0,0.0,67,0.00,,CLR,0.00,0.00,VWS V14.01,2013-10-01 23:40:00,
2013-10-01 19:45:00,71.3,60.2,29.95,WSW,254,0.0,0.0,68,0.00,,CLR,0.00,0.00,VWS V14.01,2013-10-01 23:45:00,
2013-10-01 19:50:00,70.8,60.1,29.96,WSW,254,0.0,0.0,69,0.00,,CLR,0.00,0.00,VWS V14.01,2013-10-01 23:50:00,
2013-10-01 19:55:00,70.3,60.1,29.95,WSW,254,0.0,0.0,70,0.00,,CLR,0.00,0.00,VWS V14.01,2013-10-01 23:55:00,
2013-10-01 20:00:00,69.9,59.7,29.96,WSW,254,0.0,0.0,70,0.00,,CLR,0.00,0.00,VWS V14.01,2013-10-02 00:00:00,
2013-10-01 20:06:00,69.6,59.8,29.96,WSW,254,0.0,0.0,71,0.00,,CLR,0.00,0.00,VWS V14.01,2013-10-02 00:06:00,
2013-10-01 20:11:00,69.4,59.6,29.96,WSW,254,0.0,0.0,71,0.00,,CLR,0.00,0.00,VWS V14.01,2013-10-02 00:11:00,
2013-10-01 20:16:00,69.2,59.8,29.96,WSW,254,0.0,0.0,72,0.00,,CLR,0.00,0.00,VWS V14.01,2013-10-02 00:16:00,
2013-10-01 20:20:00,69.1,59.7,29.96,WSW,254,0.0,1.0,72,0.00,,CLR,0.00,0.00,VWS V14.01,2013-10-02 00:20:00,
2013-10-01 20:25:00,69.1,59.7,29.96,WSW,254,0.0,0.0,72,0.00,,CLR,0.00,0.00,VWS V14.01,2013-10-02 00:25:00,
2013-10-01 20:30:00,69.0,59.6,29.96,WSW,254,0.0,0.0,72,0.00,,CLR,0.00,0.00,VWS V14.01,2013-10-02 00:30:00,
2013-10-01 20:35:00,68.9,59.5,29.97,WSW,254,0.0,0.0,72,0.00,,CLR,0.00,0.00,VWS V14.01,2013-10-02 00:35:00,
2013-10-01 20:40:00,68.8,59.4,29.96,WSW,254,0.0,0.0,72,0.00,,CLR,0.00,0.00,VWS V14.01,2013-10-02 00:40:00,
2013-10-01 20:45:00,68.6,59.2,29.97,WSW,254,0.0,0.0,72,0.00,,CLR,0.00,0.00,VWS V14.01,2013-10-02 00:45:00,
2013-10-01 20:51:00,68.4,59.0,29.97,WSW,254,0.0,0.0,72,0.00,,CLR,0.00,0.00,VWS V14.01,2013-10-02 00:51:00,
2013-10-01 20:56:00,68.2,59.2,29.97,WSW,254,0.0,0.0,73,0.00,,CLR,0.00,0.00,VWS V14.01,2013-10-02 00:56:00,
2013-10-01 21:01:00,67.9,59.3,29.97,WSW,254,0.0,0.0,74,0.00,,CLR,0.00,0.00,VWS V14.01,2013-10-02 01:01:00,
2013-10-01 21:06:00,67.6,59.0,29.97,WSW,254,0.0,0.0,74,0.00,,CLR,0.00,0.00,VWS V14.01,2013-10-02 01:06:00,
2013-10-01 21:11:00,67.3,59.1,29.97,WSW,254,0.0,0.0,75,0.00,,CLR,0.00,0.00,VWS V14.01,2013-10-02 01:11:00,
2013-10-01 21:16:00,67.0,58.8,29.97,WSW,254,0.0,0.0,75,0.00,,CLR,0.00,0.00,VWS V14.01,2013-10-02 01:16:00,
2013-10-01 21:21:00,66.7,58.9,29.98,WSW,254,0.0,0.0,76,0.00,,CLR,0.00,0.00,VWS V14.01,2013-10-02 01:21:00,
2013-10-01 21:26:00,66.3,58.9,29.98,WSW,254,0.0,0.0,77,0.00,,CLR,0.00,0.00,VWS V14.01,2013-10-02 01:26:00,
2013-10-01 21:31:00,66.0,59.0,29.98,WSW,254,0.0,0.0,78,0.00,,CLR,0.00,0.00,VWS V14.01,2013-10-02 01:31:00,
2013-10-01 21:36:00,65.7,59.0,29.98,WSW,254,0.0,0.0,79,0.00,,CLR,0.00,0.00,VWS V14.01,2013-10-02 01:36:00,
2013-10-01 21:42:00,65.3,59.0,29.98,WSW,254,0.0,0.0,80,0.00,,CLR,0.00,0.00,VWS V14.01,2013-10-02 01:42:00,
2013-10-01 21:47:00,65.0,58.7,29.98,WSW,254,0.0,0.0,80,0.00,,CLR,0.00,0.00,VWS V14.01,2013-10-02 01:47:00,
2013-10-01 21:52:00,64.7,58.7,29.98,WSW,254,0.0,0.0,81,0.00,,CLR,0.00,0.00,VWS V14.01,2013-10-02 01:52:00,
2013-10-01 21:57:00,64.5,58.5,29.98,WSW,254,0.0,0.0,81,0.00,,CLR,0.00,0.00,VWS V14.01,2013-10-02 01:57:00,
2013-10-01 22:02:00,64.3,58.7,29.98,WSW,254,0.0,0.0,82,0.00,,CLR,0.00,0.00,VWS V14.01,2013-10-02 02:02:00,
2013-10-01 22:07:00,64.0,58.4,29.98,WSW,254,0.0,0.0,82,0.00,,CLR,0.00,0.00,VWS V14.01,2013-10-02 02:07:00,
2013-10-01 22:12:00,63.8,58.2,29.98,WSW,254,0.0,0.0,82,0.00,,CLR,0.00,0.00,VWS V14.01,2013-10-02 02:12:00,
2013-10-01 22:17:00,63.6,58.0,29.98,WSW,254,0.0,0.0,82,0.00,,CLR,0.00,0.00,VWS V14.01,2013-10-02 02:17:00,
2013-10-01 22:23:00,63.3,58.1,29.98,WSW,254,0.0,0.0,83,0.00,,CLR,0.00,0.00,VWS V14.01,2013-10-02 02:23:00,
2013-10-01 22:28:00,63.0,58.1,29.98,WSW,254,0.0,0.0,84,0.00,,CLR,0.00,0.00,VWS V14.01,2013-10-02 02:28:00,
2013-10-01 22:33:00,62.8,57.9,29.98,WSW,254,0.0,0.0,84,0.00,,CLR,0.00,0.00,VWS V14.01,2013-10-02 02:33:00,
2013-10-01 22:38:00,62.6,57.7,29.99,WSW,254,0.0,0.0,84,0.00,,CLR,0.00,0.00,VWS V14.01,2013-10-02 02:38:00,
2013-10-01 22:43:00,62.5,57.9,29.99,WSW,254,0.0,0.0,85,0.00,,CLR,0.00,0.00,VWS V14.01,2013-10-02 02:43:00,
2013-10-01 22:48:00,62.3,57.7,29.99,WSW,254,0.0,0.0,85,0.00,,CLR,0.00,0.00,VWS V14.01,2013-10-02 02:48:00,
2013-10-01 22:53:00,62.1,57.5,29.99,WSW,254,0.0,0.0,85,0.00,,CLR,0.00,0.00,VWS V14.01,2013-10-02 02:53:00,
2013-10-01 22:58:00,62.0,57.5,29.99,WSW,254,0.0,0.0,85,0.00,,CLR,0.00,0.00,VWS V14.01,2013-10-02 02:58:00,
2013-10-01 23:04:00,61.8,57.6,29.99,WSW,254,0.0,0.0,86,0.00,,CLR,0.00,0.00,VWS V14.01,2013-10-02 03:04:00,
2013-10-01 23:09:00,61.6,57.4,29.99,WSW,254,0.0,0.0,86,0.00,,CLR,0.00,0.00,VWS V14.01,2013-10-02 03:09:00,
2013-10-01 23:14:00,61.5,57.6,29.99,WSW,254,0.0,0.0,87,0.00,,CLR,0.00,0.00,VWS V14.01,2013-10-02 03:14:00,
2013-10-01 23:19:00,61.4,57.5,29.99,WSW,254,0.0,0.0,87,0.00,,CLR,0.00,0.00,VWS V14.01,2013-10-02 03:19:00,
2013-10-01 23:24:00,61.2,57.3,29.99,WSW,254,0.0,0.0,87,0.00,,CLR,0.00,0.00,VWS V14.01,2013-10-02 03:24:00,
2013-10-01 23:29:00,61.0,57.1,29.99,WSW,254,0.0,0.0,87,0.00,,CLR,0.00,0.00,VWS V14.01,2013-10-02 03:29:00,
2013-10-01 23:34:00,60.8,56.9,29.99,WSW,254,0.0,0.0,87,0.00,,CLR,0.00,0.00,VWS V14.01,2013-10-02 03:34:00,
2013-10-01 23:39:00,60.6,56.7,29.99,WSW,254,0.0,0.0,87,0.00,,CLR,0.00,0.00,VWS V14.01,2013-10-02 03:39:00,
2013-10-01 23:44:00,60.4,56.5,29.99,WSW,254,0.0,0.0,87,0.00,,CLR,0.00,0.00,VWS V14.01,2013-10-02 03:44:00,
2013-10-01 23:50:00,60.3,56.4,29.99,WSW,254,0.0,0.0,87,0.00,,CLR,0.00,0.00,VWS V14.01,2013-10-02 03:50:00,
2013-10-01 23:55:00,60.2,56.6,29.99,WSW,254,0.0,0.0,88,0.00,,CLR,0.00,0.00,VWS V14.01,2013-10-02 03:55:00,